Time;durP1;ratioP1;P1;durP2;ratioP2;P2;SDS_P1;SDS_P2;PMS_P1;PMS_P2;Temp;Humidity;BMP_temperature;BMP_pressure;BME280_temperature;BME280_humidity;BME280_pressure;Samples;Min_cycle;Max_cycle;Signal;HPM_P1;HPM_P2
2022/09/03 00:02:22;;;;;;;2.33;1.90;;;;;;;;;;5128701;27;20515;-69
2022/09/03 00:04:56;;;;;;;5.37;2.27;;;;;;;;;;5128586;27;20510;-69
2022/09/03 00:07:42;;;;;;;2.17;2.07;;;;;;;;;;5126968;27;20442;-69
2022/09/03 00:10:12;;;;;;;2.43;2.23;;;;;;;;;;5109940;27;20434;-68
2022/09/03 00:12:40;;;;;;;3.10;2.90;;;;;;;;;;5125774;27;20430;-67
2022/09/03 00:15:08;;;;;;;3.07;1.80;;;;;;;;;;5127347;27;20427;-67
2022/09/03 00:17:40;;;;;;;2.33;2.23;;;;;;;;;;5108736;28;20439;-68
2022/09/03 00:20:12;;;;;;;2.03;1.93;;;;;;;;;;5129163;28;20489;-68
2022/09/03 00:22:43;;;;;;;2.07;1.97;;;;;;;;;;5128577;28;20926;-67
2022/09/03 00:25:13;;;;;;;2.20;2.03;;;;;;;;;;5129278;28;20441;-69
2022/09/03 00:27:39;;;;;;;2.07;1.97;;;;;;;;;;5128915;28;20969;-69
2022/09/03 00:30:09;;;;;;;6.03;1.90;;;;;;;;;;5128819;28;20804;-68
2022/09/03 00:32:47;;;;;;;2.70;2.30;;;;;;;;;;5127581;28;20425;-67
2022/09/03 00:35:20;;;;;;;2.60;2.50;;;;;;;;;;5128519;28;20529;-68
2022/09/03 00:37:47;;;;;;;1.90;1.90;;;;;;;;;;5128868;28;20449;-70
2022/09/03 00:40:23;;;;;;;2.43;2.23;;;;;;;;;;5129032;28;20478;-67
2022/09/03 00:43:01;;;;;;;4.00;1.93;;;;;;;;;;5128825;28;20514;-68
2022/09/03 00:45:38;;;;;;;3.07;2.67;;;;;;;;;;5129066;28;20434;-66
2022/09/03 00:48:26;;;;;;;3.40;2.50;;;;;;;;;;5130414;27;20483;-67
2022/09/03 00:51:07;;;;;;;2.40;1.83;;;;;;;;;;5133549;27;20606;-67
2022/09/03 00:53:32;;;;;;;4.30;2.80;;;;;;;;;;5134085;27;20429;-68
2022/09/03 00:56:03;;;;;;;1.80;1.70;;;;;;;;;;5133797;27;20431;-67
2022/09/03 00:58:54;;;;;;;15.30;2.67;;;;;;;;;;5113074;27;20216;-67
2022/09/03 01:01:22;;;;;;;2.27;2.07;;;;;;;;;;5123477;27;20443;-67
2022/09/03 01:04:06;;;;;;;2.40;2.30;;;;;;;;;;5132255;27;20517;-67
2022/09/03 01:06:53;;;;;;;2.93;1.93;;;;;;;;;;5133158;27;20479;-66
2022/09/03 01:09:26;;;;;;;3.17;3.07;;;;;;;;;;5133679;27;20550;-66
2022/09/03 01:12:00;;;;;;;2.30;2.20;;;;;;;;;;5132804;27;20447;-68
2022/09/03 01:14:29;;;;;;;2.00;2.00;;;;;;;;;;5132554;27;20448;-67
2022/09/03 01:17:02;;;;;;;2.87;2.70;;;;;;;;;;5133036;27;20445;-68
2022/09/03 01:19:30;;;;;;;3.23;2.30;;;;;;;;;;5133213;27;20569;-69
2022/09/03 01:22:08;;;;;;;1.87;1.77;;;;;;;;;;5114398;27;20426;-67
2022/09/03 01:24:34;;;;;;;2.43;2.33;;;;;;;;;;5131047;27;20440;-69
2022/09/03 01:27:00;;;;;;;2.20;1.70;;;;;;;;;;5132744;27;20521;-69
2022/09/03 01:29:45;;;;;;;3.90;1.93;;;;;;;;;;5131583;27;20627;-69
2022/09/03 01:32:15;;;;;;;2.17;2.17;;;;;;;;;;5133208;27;20196;-69
2022/09/03 01:35:00;;;;;;;2.00;1.90;;;;;;;;;;5113296;27;20533;-68
2022/09/03 01:37:26;;;;;;;2.97;2.47;;;;;;;;;;5132439;27;20422;-70
2022/09/03 01:39:52;;;;;;;2.10;2.00;;;;;;;;;;5131218;27;20986;-69
2022/09/03 01:42:36;;;;;;;5.50;2.60;;;;;;;;;;5133019;27;20188;-68
2022/09/03 01:45:12;;;;;;;2.27;2.17;;;;;;;;;;5132551;27;20190;-68
2022/09/03 01:47:38;;;;;;;2.53;2.47;;;;;;;;;;5131622;27;20445;-67
2022/09/03 01:50:04;;;;;;;2.33;2.23;;;;;;;;;;5132685;27;20427;-68
2022/09/03 01:52:39;;;;;;;2.73;2.70;;;;;;;;;;5132863;27;20427;-68
2022/09/03 01:55:12;;;;;;;2.57;2.47;;;;;;;;;;5132483;27;20479;-69
2022/09/03 01:57:38;;;;;;;2.60;2.50;;;;;;;;;;5130391;27;20503;-69
2022/09/03 02:00:04;;;;;;;2.07;1.93;;;;;;;;;;5130366;27;20478;-69
2022/09/03 02:02:31;;;;;;;2.93;2.03;;;;;;;;;;5132315;27;20431;-69
2022/09/03 02:05:02;;;;;;;2.23;2.23;;;;;;;;;;5132259;27;20441;-69
2022/09/03 02:07:32;;;;;;;2.30;2.20;;;;;;;;;;5131727;27;20526;-69
2022/09/03 02:09:59;;;;;;;5.90;2.50;;;;;;;;;;5113790;27;20434;-67
2022/09/03 02:12:25;;;;;;;2.47;2.23;;;;;;;;;;5132243;27;20430;-69
2022/09/03 02:14:52;;;;;;;3.10;3.00;;;;;;;;;;5132757;27;20461;-67
2022/09/03 02:17:18;;;;;;;3.53;3.30;;;;;;;;;;5112975;27;20532;-68
2022/09/03 02:19:44;;;;;;;1.40;1.40;;;;;;;;;;5131738;27;20540;-67
2022/09/03 02:22:11;;;;;;;3.03;2.70;;;;;;;;;;5113474;27;20430;-68
2022/09/03 02:24:37;;;;;;;3.37;3.27;;;;;;;;;;5132085;27;20430;-68
2022/09/03 02:27:04;;;;;;;5.20;3.27;;;;;;;;;;5131278;27;20994;-68
2022/09/03 02:29:30;;;;;;;3.30;3.00;;;;;;;;;;5131969;27;20992;-68
2022/09/03 02:31:57;;;;;;;2.70;2.70;;;;;;;;;;5130724;27;20465;-67
2022/09/03 02:34:23;;;;;;;2.77;2.77;;;;;;;;;;5131183;27;20583;-68
2022/09/03 02:36:49;;;;;;;4.20;3.20;;;;;;;;;;5131935;27;20454;-69
2022/09/03 02:39:16;;;;;;;2.93;2.73;;;;;;;;;;5132009;27;20844;-69
2022/09/03 02:41:43;;;;;;;3.53;3.40;;;;;;;;;;5132123;27;20438;-69
2022/09/03 02:44:16;;;;;;;3.10;2.47;;;;;;;;;;5131612;27;20771;-69
2022/09/03 02:46:48;;;;;;;7.80;3.60;;;;;;;;;;5129838;27;20427;-69
2022/09/03 02:49:14;;;;;;;3.10;3.00;;;;;;;;;;5131127;27;20525;-69
2022/09/03 02:51:41;;;;;;;2.70;2.60;;;;;;;;;;5131129;27;20438;-68
2022/09/03 02:54:07;;;;;;;1.30;1.30;;;;;;;;;;5131087;27;20782;-69
2022/09/03 02:56:33;;;;;;;2.30;2.20;;;;;;;;;;5130303;27;20443;-68
2022/09/03 02:59:00;;;;;;;8.60;2.47;;;;;;;;;;5111232;27;20493;-69
2022/09/03 03:01:26;;;;;;;2.30;2.30;;;;;;;;;;5130652;27;21119;-67
2022/09/03 03:03:52;;;;;;;1.67;1.63;;;;;;;;;;5131646;27;20506;-69
2022/09/03 03:06:19;;;;;;;1.63;1.63;;;;;;;;;;5131366;27;20534;-68
2022/09/03 03:08:45;;;;;;;2.03;2.03;;;;;;;;;;5130782;27;20442;-69
2022/09/03 03:11:11;;;;;;;1.27;1.27;;;;;;;;;;5112537;27;20770;-69
2022/09/03 03:13:38;;;;;;;1.60;1.50;;;;;;;;;;5129553;27;20437;-68
2022/09/03 03:16:07;;;;;;;2.53;1.47;;;;;;;;;;5130801;27;20419;-69
2022/09/03 03:18:34;;;;;;;2.13;1.90;;;;;;;;;;5130313;27;20430;-69
2022/09/03 03:21:13;;;;;;;1.83;1.83;;;;;;;;;;5130015;27;20498;-68
2022/09/03 03:23:39;;;;;;;1.30;1.20;;;;;;;;;;5130859;27;20431;-69
2022/09/03 03:26:06;;;;;;;1.63;1.63;;;;;;;;;;5130682;27;20483;-70
2022/09/03 03:28:33;;;;;;;1.23;1.23;;;;;;;;;;5130176;27;20438;-68
2022/09/03 03:31:05;;;;;;;1.57;1.50;;;;;;;;;;5131046;27;20435;-68
2022/09/03 03:33:30;;;;;;;7.53;1.60;;;;;;;;;;5130459;27;20466;-67
2022/09/03 03:35:57;;;;;;;2.40;1.50;;;;;;;;;;5129713;27;20482;-67
2022/09/03 03:38:22;;;;;;;1.90;1.80;;;;;;;;;;5128324;27;20799;-67
2022/09/03 03:40:48;;;;;;;1.70;1.60;;;;;;;;;;5130701;27;20972;-68
2022/09/03 03:43:14;;;;;;;1.70;1.60;;;;;;;;;;5130467;27;20941;-68
2022/09/03 03:45:40;;;;;;;1.57;1.57;;;;;;;;;;5129726;27;20829;-67
2022/09/03 03:48:06;;;;;;;1.83;1.73;;;;;;;;;;5111738;27;20458;-69
2022/09/03 03:50:32;;;;;;;1.50;1.40;;;;;;;;;;5130141;27;20438;-68
2022/09/03 03:52:59;;;;;;;2.03;1.80;;;;;;;;;;5130958;27;20422;-68
2022/09/03 03:55:25;;;;;;;4.10;2.10;;;;;;;;;;5111530;27;20438;-68
2022/09/03 03:57:52;;;;;;;3.03;1.67;;;;;;;;;;5129542;27;20454;-66
2022/09/03 04:00:18;;;;;;;1.57;1.57;;;;;;;;;;5130040;27;21190;-68
2022/09/03 04:02:44;;;;;;;1.53;1.47;;;;;;;;;;5130017;27;20431;-67
2022/09/03 04:05:10;;;;;;;2.07;2.07;;;;;;;;;;5129980;27;20438;-67
2022/09/03 04:07:36;;;;;;;1.90;1.90;;;;;;;;;;5111903;27;20411;-66
2022/09/03 04:10:02;;;;;;;5.47;2.40;;;;;;;;;;5130111;27;20441;-68
2022/09/03 04:12:28;;;;;;;1.70;1.70;;;;;;;;;;5129019;27;20426;-67
2022/09/03 04:14:54;;;;;;;1.47;1.37;;;;;;;;;;5129254;27;20804;-68
2022/09/03 04:17:20;;;;;;;2.83;1.67;;;;;;;;;;5129871;27;20426;-67
2022/09/03 04:19:47;;;;;;;2.20;2.20;;;;;;;;;;5129692;27;20474;-67
2022/09/03 04:22:14;;;;;;;3.47;2.20;;;;;;;;;;5128189;27;20942;-67
2022/09/03 04:24:40;;;;;;;1.90;1.50;;;;;;;;;;5129305;28;20453;-68
2022/09/03 04:27:06;;;;;;;1.63;1.47;;;;;;;;;;5128565;28;20439;-69
2022/09/03 04:29:32;;;;;;;8.73;2.00;;;;;;;;;;5129612;28;20494;-68
2022/09/03 04:34:43;;;;;;;1.90;1.80;;;;;;;;;;5129859;28;20531;-66
2022/09/03 04:37:09;;;;;;;1.90;1.90;;;;;;;;;;5128655;28;20957;-66
2022/09/03 04:39:35;;;;;;;2.30;2.17;;;;;;;;;;5130049;28;20901;-68
2022/09/03 04:42:01;;;;;;;6.13;2.20;;;;;;;;;;5129930;28;20549;-67
2022/09/03 04:44:27;;;;;;;1.60;1.60;;;;;;;;;;5129198;28;20194;-67
2022/09/03 04:46:53;;;;;;;1.00;1.00;;;;;;;;;;5128413;28;20838;-67
2022/09/03 04:49:19;;;;;;;1.93;1.70;;;;;;;;;;5129815;28;20454;-67
2022/09/03 04:51:45;;;;;;;1.80;1.70;;;;;;;;;;5111246;28;20857;-67
2022/09/03 04:54:11;;;;;;;1.77;1.77;;;;;;;;;;5129820;28;20430;-67
2022/09/03 04:56:39;;;;;;;7.40;1.70;;;;;;;;;;5128155;28;20949;-67
2022/09/03 04:59:06;;;;;;;1.87;1.77;;;;;;;;;;5129044;28;20481;-69
2022/09/03 05:01:33;;;;;;;1.40;1.40;;;;;;;;;;5127607;28;20434;-67
2022/09/03 05:03:59;;;;;;;1.50;1.50;;;;;;;;;;5128203;28;20441;-68
2022/09/03 05:06:26;;;;;;;4.67;1.53;;;;;;;;;;5129515;28;20526;-67
2022/09/03 05:08:53;;;;;;;1.70;1.60;;;;;;;;;;5129840;28;20415;-67
2022/09/03 05:11:19;;;;;;;1.50;1.50;;;;;;;;;;5129499;28;20438;-69
2022/09/03 05:13:53;;;;;;;1.53;1.43;;;;;;;;;;5126266;28;20775;-67
2022/09/03 05:16:18;;;;;;;3.67;2.00;;;;;;;;;;5128641;28;20462;-68
2022/09/03 05:18:46;;;;;;;1.80;1.80;;;;;;;;;;5123766;28;20450;-68
2022/09/03 05:21:13;;;;;;;7.03;1.80;;;;;;;;;;5128776;28;20481;-66
2022/09/03 05:23:41;;;;;;;2.20;1.93;;;;;;;;;;5127112;28;20434;-67
2022/09/03 05:26:08;;;;;;;2.20;2.10;;;;;;;;;;5128199;28;20431;-68
2022/09/03 05:28:35;;;;;;;2.70;2.00;;;;;;;;;;5128064;28;20506;-66
2022/09/03 05:31:02;;;;;;;2.17;2.10;;;;;;;;;;5127828;28;20418;-67
2022/09/03 05:33:28;;;;;;;2.20;2.10;;;;;;;;;;5110642;27;20431;-67
2022/09/03 05:36:04;;;;;;;2.20;2.00;;;;;;;;;;5130252;27;20943;-67
2022/09/03 05:38:30;;;;;;;2.23;1.97;;;;;;;;;;5130434;27;20434;-66
2022/09/03 05:41:00;;;;;;;2.10;2.10;;;;;;;;;;5129158;27;20485;-66
2022/09/03 05:43:30;;;;;;;2.40;2.17;;;;;;;;;;5130733;27;20442;-66
2022/09/03 05:46:03;;;;;;;3.03;2.57;;;;;;;;;;5131462;27;20527;-67
2022/09/03 05:48:30;;;;;;;6.63;2.53;;;;;;;;;;5130773;27;20785;-68
2022/09/03 05:50:59;;;;;;;2.40;2.20;;;;;;;;;;5132044;27;20434;-67
2022/09/03 05:53:26;;;;;;;5.40;1.87;;;;;;;;;;5131798;27;20431;-68
2022/09/03 05:55:59;;;;;;;2.40;2.10;;;;;;;;;;5131085;27;20431;-67
2022/09/03 05:58:30;;;;;;;1.50;1.50;;;;;;;;;;5130155;27;20577;-67
2022/09/03 06:00:56;;;;;;;3.60;2.30;;;;;;;;;;5132481;27;20566;-68
2022/09/03 06:03:22;;;;;;;2.33;2.33;;;;;;;;;;5130421;27;20483;-68
2022/09/03 06:05:51;;;;;;;2.33;2.20;;;;;;;;;;5131981;27;20445;-68
2022/09/03 06:08:17;;;;;;;1.90;1.90;;;;;;;;;;5130556;27;20893;-67
2022/09/03 06:10:43;;;;;;;2.30;2.30;;;;;;;;;;5131178;27;20458;-67
2022/09/03 06:13:10;;;;;;;2.13;2.07;;;;;;;;;;5130935;27;20467;-67
2022/09/03 06:15:36;;;;;;;3.80;1.83;;;;;;;;;;5131648;27;20561;-68
2022/09/03 06:18:02;;;;;;;2.57;2.47;;;;;;;;;;5130273;27;21150;-69
2022/09/03 06:20:28;;;;;;;2.80;2.60;;;;;;;;;;5129280;27;20467;-68
2022/09/03 06:22:54;;;;;;;2.50;2.10;;;;;;;;;;5131144;27;20795;-69
2022/09/03 06:25:21;;;;;;;3.70;2.33;;;;;;;;;;5131684;27;20450;-69
2022/09/03 06:27:48;;;;;;;2.57;2.47;;;;;;;;;;5129937;27;20422;-68
2022/09/03 06:30:15;;;;;;;4.87;2.20;;;;;;;;;;5131365;27;20442;-68
2022/09/03 06:32:49;;;;;;;2.60;2.50;;;;;;;;;;5130401;27;20435;-69
2022/09/03 06:35:15;;;;;;;2.40;2.40;;;;;;;;;;5131645;27;21039;-68
2022/09/03 06:37:41;;;;;;;2.47;2.37;;;;;;;;;;5119570;27;20438;-68
2022/09/03 06:40:12;;;;;;;1.83;1.83;;;;;;;;;;5129928;27;20485;-68
2022/09/03 06:42:41;;;;;;;2.53;2.33;;;;;;;;;;5112186;27;20429;-69
2022/09/03 06:45:08;;;;;;;2.40;2.23;;;;;;;;;;5129934;27;20964;-67
2022/09/03 06:47:34;;;;;;;1.90;1.80;;;;;;;;;;5130191;27;20919;-68
2022/09/03 06:50:01;;;;;;;4.00;2.50;;;;;;;;;;5130200;27;20435;-66
2022/09/03 06:52:27;;;;;;;2.00;2.00;;;;;;;;;;5130480;27;20479;-67
2022/09/03 06:54:53;;;;;;;3.03;3.03;;;;;;;;;;5129532;27;20438;-66
2022/09/03 06:57:19;;;;;;;2.70;2.47;;;;;;;;;;5127506;27;20545;-68
2022/09/03 06:59:45;;;;;;;3.60;2.47;;;;;;;;;;5130191;27;20828;-67
2022/09/03 07:02:11;;;;;;;2.77;2.67;;;;;;;;;;5130265;27;20433;-68
2022/09/03 07:04:37;;;;;;;5.30;2.10;;;;;;;;;;5126137;27;20435;-67
2022/09/03 07:07:03;;;;;;;2.13;1.93;;;;;;;;;;5128521;27;20977;-67
2022/09/03 07:09:31;;;;;;;2.13;2.13;;;;;;;;;;5129474;27;20657;-67
2022/09/03 07:11:57;;;;;;;1.67;1.60;;;;;;;;;;5130701;27;20434;-67
2022/09/03 07:14:23;;;;;;;3.00;1.80;;;;;;;;;;5131451;27;20451;-68
2022/09/03 07:16:49;;;;;;;4.63;1.67;;;;;;;;;;5130143;27;20416;-70
2022/09/03 07:19:15;;;;;;;1.97;1.97;;;;;;;;;;5112953;27;20788;-67
2022/09/03 07:21:42;;;;;;;2.20;2.10;;;;;;;;;;5129437;27;20431;-68
2022/09/03 07:24:08;;;;;;;2.30;1.83;;;;;;;;;;5130936;27;21009;-68
2022/09/03 07:26:36;;;;;;;5.90;2.30;;;;;;;;;;5129493;27;20918;-67
2022/09/03 07:29:03;;;;;;;1.50;1.50;;;;;;;;;;5129497;27;20426;-69
2022/09/03 07:31:33;;;;;;;1.83;1.73;;;;;;;;;;5130364;27;20426;-64
2022/09/03 07:34:07;;;;;;;1.93;1.80;;;;;;;;;;5130990;27;20809;-61
2022/09/03 07:36:44;;;;;;;1.50;1.50;;;;;;;;;;5130231;27;20494;-62
2022/09/03 07:39:11;;;;;;;8.60;2.17;;;;;;;;;;5130948;27;20423;-62
2022/09/03 07:41:37;;;;;;;3.10;1.83;;;;;;;;;;5131140;27;20403;-64
2022/09/03 07:44:06;;;;;;;5.30;1.53;;;;;;;;;;5129992;27;20990;-63
2022/09/03 07:46:33;;;;;;;4.00;1.70;;;;;;;;;;5130558;27;20491;-61
2022/09/03 07:49:03;;;;;;;1.77;1.77;;;;;;;;;;5130753;27;20419;-62
2022/09/03 07:51:31;;;;;;;1.60;1.60;;;;;;;;;;5131322;27;20502;-62
2022/09/03 07:53:58;;;;;;;1.50;1.40;;;;;;;;;;5129625;27;20594;-64
2022/09/03 07:56:24;;;;;;;1.70;1.70;;;;;;;;;;5129724;27;20960;-61
2022/09/03 07:58:50;;;;;;;1.30;1.20;;;;;;;;;;5128810;27;20462;-63
2022/09/03 08:01:20;;;;;;;1.40;1.30;;;;;;;;;;5130889;27;20488;-63
2022/09/03 08:03:47;;;;;;;1.60;1.60;;;;;;;;;;5129800;27;20511;-62
2022/09/03 08:06:14;;;;;;;1.63;1.53;;;;;;;;;;5130857;27;20414;-66
2022/09/03 08:08:40;;;;;;;2.27;2.27;;;;;;;;;;5130549;27;20465;-63
2022/09/03 08:11:11;;;;;;;1.47;1.40;;;;;;;;;;5129693;27;20430;-64
2022/09/03 08:13:43;;;;;;;3.23;1.50;;;;;;;;;;5130198;27;20429;-65
2022/09/03 08:16:09;;;;;;;2.77;1.90;;;;;;;;;;5129532;27;20925;-65
2022/09/03 08:18:37;;;;;;;1.30;1.20;;;;;;;;;;5111935;27;20415;-63
2022/09/03 08:21:07;;;;;;;3.23;1.70;;;;;;;;;;5130578;27;20510;-63
2022/09/03 08:23:36;;;;;;;1.70;1.60;;;;;;;;;;5130871;28;20453;-65
2022/09/03 08:26:02;;;;;;;1.43;1.43;;;;;;;;;;5129538;28;20431;-62
2022/09/03 08:28:31;;;;;;;1.33;1.33;;;;;;;;;;5130252;28;20427;-63
2022/09/03 08:30:57;;;;;;;2.10;1.50;;;;;;;;;;5112228;28;20431;-66
2022/09/03 08:33:39;;;;;;;1.57;1.57;;;;;;;;;;5130509;28;20411;-62
2022/09/03 08:36:06;;;;;;;1.77;1.67;;;;;;;;;;5130081;28;20220;-62
2022/09/03 08:38:33;;;;;;;2.10;1.77;;;;;;;;;;5111892;28;20425;-63
2022/09/03 08:41:03;;;;;;;1.27;1.27;;;;;;;;;;5130100;28;20477;-64
2022/09/03 08:43:29;;;;;;;1.30;1.30;;;;;;;;;;5130535;28;20865;-62
2022/09/03 08:45:58;;;;;;;2.20;2.10;;;;;;;;;;5130141;28;20485;-62
2022/09/03 08:48:25;;;;;;;1.53;1.53;;;;;;;;;;5128604;28;20419;-64
2022/09/03 08:50:54;;;;;;;3.10;3.00;;;;;;;;;;5112080;28;20422;-61
2022/09/03 08:53:26;;;;;;;1.63;1.63;;;;;;;;;;5130272;28;20414;-61
2022/09/03 08:55:58;;;;;;;1.67;1.67;;;;;;;;;;5111099;28;20415;-62
2022/09/03 08:58:29;;;;;;;1.80;1.70;;;;;;;;;;5128592;28;20478;-64
2022/09/03 09:01:00;;;;;;;1.43;1.40;;;;;;;;;;5129412;28;20508;-62
2022/09/03 09:03:31;;;;;;;3.00;1.40;;;;;;;;;;5130460;28;20793;-66
2022/09/03 09:06:16;;;;;;;1.37;1.37;;;;;;;;;;5129630;27;20437;-63
2022/09/03 09:08:52;;;;;;;3.93;1.40;;;;;;;;;;5129565;27;20509;-64
2022/09/03 09:11:20;;;;;;;1.40;1.40;;;;;;;;;;5133893;27;20418;-62
2022/09/03 09:13:55;;;;;;;1.17;1.17;;;;;;;;;;5133262;27;20453;-62
2022/09/03 09:16:27;;;;;;;2.30;2.10;;;;;;;;;;5133750;27;20423;-64
2022/09/03 09:19:11;;;;;;;1.47;1.43;;;;;;;;;;5132961;27;20439;-64
2022/09/03 09:21:51;;;;;;;13.90;2.27;;;;;;;;;;5134283;27;20510;-66
2022/09/03 09:24:30;;;;;;;1.23;1.17;;;;;;;;;;5130814;27;20426;-62
2022/09/03 09:27:02;;;;;;;1.60;1.60;;;;;;;;;;5131176;27;20427;-62
2022/09/03 09:29:31;;;;;;;1.47;1.37;;;;;;;;;;5132398;27;20430;-62
2022/09/03 09:32:00;;;;;;;1.53;1.53;;;;;;;;;;5132433;27;20438;-62
2022/09/03 09:34:26;;;;;;;2.43;2.23;;;;;;;;;;5133099;27;20437;-61
2022/09/03 09:36:53;;;;;;;1.77;1.13;;;;;;;;;;5132416;27;20438;-62
2022/09/03 09:39:19;;;;;;;1.00;1.00;;;;;;;;;;5114238;27;20960;-67
2022/09/03 09:41:59;;;;;;;1.63;1.53;;;;;;;;;;5132471;27;20447;-66
2022/09/03 09:44:26;;;;;;;1.53;1.03;;;;;;;;;;5132187;27;20418;-64
2022/09/03 09:47:02;;;;;;;5.13;1.37;;;;;;;;;;5132368;27;20503;-61
2022/09/03 09:49:30;;;;;;;1.40;1.40;;;;;;;;;;5113820;27;20434;-61
2022/09/03 09:52:03;;;;;;;3.83;1.47;;;;;;;;;;5131840;27;20459;-62
2022/09/03 09:54:29;;;;;;;1.07;1.07;;;;;;;;;;5132773;27;20501;-62
2022/09/03 09:56:59;;;;;;;1.30;1.30;;;;;;;;;;5131061;27;20482;-64
2022/09/03 09:59:25;;;;;;;4.00;1.60;;;;;;;;;;5133045;27;20426;-64
2022/09/03 10:01:51;;;;;;;0.90;0.90;;;;;;;;;;5131925;27;20445;-66
2022/09/03 10:04:26;;;;;;;5.00;1.83;;;;;;;;;;5133128;27;20419;-65
2022/09/03 10:07:03;;;;;;;4.77;1.90;;;;;;;;;;5132470;27;20434;-68
2022/09/03 10:09:30;;;;;;;1.20;1.20;;;;;;;;;;5114475;27;20965;-69
2022/09/03 10:12:03;;;;;;;1.70;0.77;;;;;;;;;;5131079;27;20930;-67
2022/09/03 10:14:34;;;;;;;1.77;1.10;;;;;;;;;;5132465;27;20426;-68
2022/09/03 10:17:06;;;;;;;1.33;1.23;;;;;;;;;;5114087;27;20441;-67
2022/09/03 10:20:26;;;;;;;2.53;1.73;;;;;;;;;;5132106;27;20558;-67
2022/09/03 10:22:41;;;;;;;3.93;1.20;;;;;;;;;;5131959;27;20518;-66
2022/09/03 10:25:08;;;;;;;0.93;0.60;;;;;;;;;;5114178;27;20419;-67
2022/09/03 10:27:35;;;;;;;1.50;1.50;;;;;;;;;;5131970;27;20941;-66
2022/09/03 10:30:01;;;;;;;6.33;5.43;;;;;;;;;;5132391;27;20522;-67
2022/09/03 10:32:39;;;;;;;0.60;0.60;;;;;;;;;;5132133;27;20443;-66
2022/09/03 10:35:11;;;;;;;7.43;1.37;;;;;;;;;;5132283;27;20438;-66
2022/09/03 10:37:46;;;;;;;2.47;2.20;;;;;;;;;;5132546;27;20434;-66
2022/09/03 10:40:29;;;;;;;2.77;1.07;;;;;;;;;;5113776;27;20469;-68
2022/09/03 10:43:07;;;;;;;2.83;1.40;;;;;;;;;;5131660;27;20495;-67
2022/09/03 10:45:44;;;;;;;1.33;1.23;;;;;;;;;;5132136;27;20463;-67
2022/09/03 10:48:33;;;;;;;0.60;0.60;;;;;;;;;;5128137;27;20992;-68
2022/09/03 10:51:06;;;;;;;0.50;0.50;;;;;;;;;;5084267;27;20426;-66
2022/09/03 10:53:51;;;;;;;0.47;0.47;;;;;;;;;;5131293;27;20438;-68
2022/09/03 10:56:20;;;;;;;0.97;0.53;;;;;;;;;;5131187;27;20429;-68
2022/09/03 10:58:55;;;;;;;1.33;0.80;;;;;;;;;;5129586;27;20523;-67
2022/09/03 11:01:42;;;;;;;1.27;0.70;;;;;;;;;;5130945;27;20565;-66
2022/09/03 11:04:08;;;;;;;0.70;0.70;;;;;;;;;;5129723;27;21168;-66
2022/09/03 11:06:47;;;;;;;1.43;0.57;;;;;;;;;;5126888;27;20498;-68
2022/09/03 11:09:30;;;;;;;1.00;0.63;;;;;;;;;;5131014;27;20847;-66
2022/09/03 11:11:56;;;;;;;0.70;0.70;;;;;;;;;;5130524;27;20438;-67
2022/09/03 11:14:28;;;;;;;0.70;0.50;;;;;;;;;;5130710;27;20431;-68
2022/09/03 11:16:59;;;;;;;0.60;0.60;;;;;;;;;;5129705;27;20431;-67
2022/09/03 11:19:34;;;;;;;0.70;0.70;;;;;;;;;;5130303;27;20506;-68
2022/09/03 11:22:00;;;;;;;0.50;0.50;;;;;;;;;;5130360;27;20472;-66
2022/09/03 11:24:29;;;;;;;0.50;0.50;;;;;;;;;;5131174;27;20422;-67
2022/09/03 11:27:13;;;;;;;0.70;0.70;;;;;;;;;;5129990;27;20423;-67
2022/09/03 11:29:45;;;;;;;0.80;0.80;;;;;;;;;;5129249;27;20471;-66
2022/09/03 11:32:23;;;;;;;1.57;0.87;;;;;;;;;;5128830;27;20426;-66
2022/09/03 11:34:51;;;;;;;1.07;0.87;;;;;;;;;;5128442;27;21006;-67
2022/09/03 11:37:22;;;;;;;0.63;0.63;;;;;;;;;;5129300;27;20434;-67
2022/09/03 11:40:00;;;;;;;1.10;1.10;;;;;;;;;;5128003;27;20490;-67
2022/09/03 11:42:26;;;;;;;0.93;0.93;;;;;;;;;;5128211;27;20510;-70
2022/09/03 11:44:52;;;;;;;2.10;0.97;;;;;;;;;;5110494;27;20434;-66
2022/09/03 11:47:18;;;;;;;1.00;1.00;;;;;;;;;;5130460;27;20192;-66
2022/09/03 11:49:49;;;;;;;1.13;0.53;;;;;;;;;;5129759;27;20423;-66
2022/09/03 11:52:25;;;;;;;0.60;0.60;;;;;;;;;;5130383;27;20444;-69
2022/09/03 11:54:51;;;;;;;0.90;0.87;;;;;;;;;;5128765;27;20434;-67
2022/09/03 11:57:30;;;;;;;0.80;0.80;;;;;;;;;;5129685;27;20830;-67
2022/09/03 12:00:20;;;;;;;1.17;1.17;;;;;;;;;;5130218;27;20989;-70
2022/09/03 12:02:49;;;;;;;0.70;0.70;;;;;;;;;;5130225;27;20791;-69
2022/09/03 12:05:24;;;;;;;0.70;0.70;;;;;;;;;;5127121;27;20466;-67
2022/09/03 12:07:50;;;;;;;0.70;0.70;;;;;;;;;;5129735;27;20474;-66
2022/09/03 12:10:25;;;;;;;0.90;0.90;;;;;;;;;;5130739;27;20898;-66
2022/09/03 12:13:05;;;;;;;0.87;0.50;;;;;;;;;;5130251;27;20189;-66
2022/09/03 12:15:49;;;;;;;6.00;1.10;;;;;;;;;;5128845;27;20977;-67
2022/09/03 12:18:21;;;;;;;0.50;0.50;;;;;;;;;;5127346;27;20535;-68
2022/09/03 12:20:54;;;;;;;0.90;0.90;;;;;;;;;;5127201;27;20486;-67
2022/09/03 12:23:27;;;;;;;0.43;0.40;;;;;;;;;;5130012;28;20438;-67
2022/09/03 12:25:54;;;;;;;0.50;0.50;;;;;;;;;;5129523;28;20456;-67
2022/09/03 12:28:22;;;;;;;0.40;0.40;;;;;;;;;;5130229;27;20407;-67
2022/09/03 12:30:52;;;;;;;1.03;0.73;;;;;;;;;;5130300;28;20439;-66
2022/09/03 12:33:19;;;;;;;0.30;0.30;;;;;;;;;;5129279;28;20434;-67
2022/09/03 12:36:05;;;;;;;0.50;0.50;;;;;;;;;;5128338;28;20434;-68
2022/09/03 12:38:33;;;;;;;1.20;1.10;;;;;;;;;;5110207;28;20513;-67
2022/09/03 12:41:00;;;;;;;0.67;0.50;;;;;;;;;;5129630;28;20470;-68
2022/09/03 12:43:28;;;;;;;0.60;0.60;;;;;;;;;;5129562;27;20430;-69
2022/09/03 12:45:54;;;;;;;0.50;0.50;;;;;;;;;;5132776;27;20434;-69
2022/09/03 12:48:20;;;;;;;0.47;0.40;;;;;;;;;;5134463;27;20771;-68
2022/09/03 12:50:47;;;;;;;0.43;0.40;;;;;;;;;;5133578;27;20509;-66
2022/09/03 12:53:21;;;;;;;0.70;0.70;;;;;;;;;;5134452;27;20427;-67
2022/09/03 12:55:49;;;;;;;1.63;1.00;;;;;;;;;;5133754;27;20518;-70
2022/09/03 12:58:21;;;;;;;1.97;1.87;;;;;;;;;;5132970;27;20462;-67
2022/09/03 13:01:07;;;;;;;1.70;1.60;;;;;;;;;;5134280;27;20478;-69
2022/09/03 13:03:33;;;;;;;2.10;2.10;;;;;;;;;;5134124;27;20509;-70
2022/09/03 13:06:07;;;;;;;0.80;0.80;;;;;;;;;;5134208;27;20518;-70
2022/09/03 13:08:36;;;;;;;1.50;1.50;;;;;;;;;;5132090;27;20425;-66
2022/09/03 13:11:03;;;;;;;1.40;1.40;;;;;;;;;;5132949;27;20411;-69
2022/09/03 13:13:31;;;;;;;1.30;1.30;;;;;;;;;;5134319;27;20415;-65
2022/09/03 13:16:00;;;;;;;1.50;1.50;;;;;;;;;;5133995;27;20418;-66
2022/09/03 13:18:26;;;;;;;1.07;1.07;;;;;;;;;;5133530;27;20513;-69
2022/09/03 13:21:06;;;;;;;1.30;1.27;;;;;;;;;;5133011;27;20612;-68
2022/09/03 13:23:35;;;;;;;1.00;1.00;;;;;;;;;;5133185;27;20446;-67
2022/09/03 13:26:09;;;;;;;0.73;0.73;;;;;;;;;;5133424;27;20499;-66
2022/09/03 13:28:49;;;;;;;1.27;0.80;;;;;;;;;;5133619;27;20423;-68
2022/09/03 13:31:33;;;;;;;2.47;0.80;;;;;;;;;;5133993;27;20901;-66
2022/09/03 13:34:04;;;;;;;1.00;1.00;;;;;;;;;;5132723;27;20419;-67
2022/09/03 13:36:36;;;;;;;3.63;0.90;;;;;;;;;;5133334;27;20453;-68
2022/09/03 13:39:05;;;;;;;1.23;1.13;;;;;;;;;;5132623;27;20768;-70
2022/09/03 13:41:49;;;;;;;1.10;1.00;;;;;;;;;;5133330;27;20474;-68
2022/09/03 13:44:26;;;;;;;0.83;0.83;;;;;;;;;;5132756;27;20435;-67
2022/09/03 13:46:54;;;;;;;1.20;1.20;;;;;;;;;;5129931;27;20799;-66
2022/09/03 13:52:34;;;;;;;0.57;0.57;;;;;;;;;;5133243;27;20414;-69
2022/09/03 13:55:02;;;;;;;3.53;3.20;;;;;;;;;;5132490;27;20418;-68
2022/09/03 13:57:46;;;;;;;1.63;1.63;;;;;;;;;;5132611;27;20484;-69
2022/09/03 14:00:23;;;;;;;1.47;1.47;;;;;;;;;;5132587;27;20512;-69
2022/09/03 14:03:06;;;;;;;0.80;0.80;;;;;;;;;;5132645;27;20458;-66
2022/09/03 14:05:46;;;;;;;0.90;0.90;;;;;;;;;;5114593;27;20423;-68
2022/09/03 14:08:13;;;;;;;0.60;0.60;;;;;;;;;;5132263;27;20801;-70
2022/09/03 14:10:53;;;;;;;0.90;0.90;;;;;;;;;;5130292;27;20435;-69
2022/09/03 14:13:38;;;;;;;1.00;1.00;;;;;;;;;;5131284;27;20487;-67
2022/09/03 14:16:04;;;;;;;1.70;1.00;;;;;;;;;;5112718;27;20974;-66
2022/09/03 14:18:38;;;;;;;0.83;0.83;;;;;;;;;;5132585;27;20427;-67
2022/09/03 14:21:07;;;;;;;0.67;0.67;;;;;;;;;;5131828;27;20473;-66
2022/09/03 14:23:52;;;;;;;0.90;0.90;;;;;;;;;;5132637;27;20435;-68
2022/09/03 14:26:22;;;;;;;3.80;0.80;;;;;;;;;;5130932;27;20430;-70
2022/09/03 14:28:49;;;;;;;0.77;0.77;;;;;;;;;;5113548;27;20415;-66
2022/09/03 14:31:35;;;;;;;1.07;1.07;;;;;;;;;;5132171;27;20414;-67
2022/09/03 14:34:01;;;;;;;0.70;0.70;;;;;;;;;;5132589;27;20411;-70
2022/09/03 14:36:29;;;;;;;1.17;1.07;;;;;;;;;;5131368;27;20793;-67
2022/09/03 14:39:14;;;;;;;2.40;0.93;;;;;;;;;;5113596;27;20435;-69
2022/09/03 14:41:43;;;;;;;1.77;1.20;;;;;;;;;;5131602;27;20494;-66
2022/09/03 14:44:18;;;;;;;0.90;0.90;;;;;;;;;;5132374;27;20493;-66
2022/09/03 14:46:44;;;;;;;1.20;1.20;;;;;;;;;;5131303;27;20434;-69
2022/09/03 14:49:29;;;;;;;1.03;1.00;;;;;;;;;;5113576;27;20446;-69
2022/09/03 14:52:15;;;;;;;1.30;1.30;;;;;;;;;;5131393;27;20442;-67
2022/09/03 14:54:58;;;;;;;1.10;1.10;;;;;;;;;;5131853;27;20414;-68
2022/09/03 14:57:39;;;;;;;1.20;1.20;;;;;;;;;;5129917;27;20992;-71
2022/09/03 15:00:08;;;;;;;1.00;1.00;;;;;;;;;;5130551;27;20534;-67
2022/09/03 15:02:34;;;;;;;1.43;1.40;;;;;;;;;;5129602;27;20534;-67
2022/09/03 15:05:04;;;;;;;3.80;1.33;;;;;;;;;;5131657;27;20521;-67
2022/09/03 15:07:32;;;;;;;1.03;1.03;;;;;;;;;;5131354;27;20426;-67
2022/09/03 15:10:15;;;;;;;1.17;1.17;;;;;;;;;;5131355;27;20486;-68